気象予報士の航空気象 夏日とCB:積乱雲

*All archives   *Admin

スポンサーサイト

上記の広告は1ヶ月以上更新のないブログに表示されています。
新しい記事を書く事で広告が消せます。
--:--  |  スポンサー広告  |  EDIT  |  Top↑

2010.06.03 (Thu)

夏日とCB:積乱雲

RJTT 030500Z 17012KT 9999 FEW030 25/10 Q1016 RMK 1CU030 A3003


RJAA 030500Z 14013KT 9999 FEW030CB 24/12 Q1017 NOSIG RMK 1CB030 A3004 CB NNW


とってもいい天気。


庭のバラもきれいに咲いています。


ところによって積乱雲がたっているようなので、雨にも注意が必要です。


しかし、一過性の可能性が強いので、雨が降ってきてもしばらく待っていれば止むでしょう。



 
ブログランキングに参加しています。
にほんブログ村 環境ブログ 天気・気象学へ
にほんブログ村
応援クリックをおねがします。


以下、アフィリエイトサイトです。




スポンサーサイト
18:51  |  気象・天気  |  TB(0)  |  CM(0)  |  EDIT  |  Top↑

コメントを投稿する


 管理者だけに表示  (非公開コメント投稿可能)

▲PageTop

この記事のトラックバックURL

→http://weathereucalyptus.blog115.fc2.com/tb.php/505-648a2274
この記事にトラックバックする(FC2ブログユーザー)

この記事へのトラックバック

▲PageTop

 | BLOGTOP | 
上記広告は1ヶ月以上更新のないブログに表示されています。新しい記事を書くことで広告を消せます。